createdAt,value
2022-10-10T00:01:15.454Z,1.25
2022-10-10T00:03:42.596Z,1.13
2022-10-10T00:06:10.030Z,1.65
2022-10-10T00:08:36.519Z,1.92
2022-10-10T00:11:04.262Z,0.88
2022-10-10T00:13:31.008Z,1.23
2022-10-10T00:15:57.795Z,1.10
2022-10-10T00:18:24.264Z,0.80
2022-10-10T00:20:52.323Z,0.73
2022-10-10T00:23:19.680Z,1.20
2022-10-10T00:25:46.424Z,1.95
2022-10-10T00:28:12.883Z,2.15
2022-10-10T00:30:39.919Z,0.68
2022-10-10T00:33:06.702Z,0.70
2022-10-10T00:35:33.123Z,1.33
2022-10-10T00:37:59.585Z,0.50
2022-10-10T00:40:26.929Z,0.40
2022-10-10T00:42:53.674Z,2.40
2022-10-10T00:45:37.212Z,0.70
2022-10-10T00:48:18.291Z,1.20
2022-10-10T00:50:50.806Z,1.05
2022-10-10T00:53:21.563Z,1.63
2022-10-10T00:55:48.125Z,1.08
2022-10-10T00:58:16.947Z,1.50
2022-10-10T01:00:43.466Z,0.60
2022-10-10T01:03:09.922Z,3.17
2022-10-10T01:05:37.003Z,1.00
2022-10-10T01:08:05.776Z,0.77
2022-10-10T01:10:39.328Z,0.63
2022-10-10T01:13:26.745Z,1.15
2022-10-10T01:16:01.194Z,1.73
2022-10-10T01:18:36.543Z,0.75
2022-10-10T01:21:15.492Z,1.48
2022-10-10T01:24:14.855Z,1.38
2022-10-10T01:27:09.297Z,0.70
2022-10-10T01:29:41.723Z,0.75
2022-10-10T01:32:25.384Z,1.08
2022-10-10T01:35:14.755Z,2.63
2022-10-10T01:37:50.363Z,1.00
2022-10-10T01:40:52.163Z,0.45
2022-10-10T01:43:19.003Z,2.33
2022-10-10T01:45:52.510Z,1.50
2022-10-10T01:48:23.771Z,1.27
2022-10-10T01:51:09.338Z,2.80
2022-10-10T01:54:00.459Z,1.33
2022-10-10T01:56:33.107Z,1.25
2022-10-10T01:59:47.788Z,1.08
2022-10-10T02:02:19.991Z,1.17
2022-10-10T02:04:57.012Z,1.83
2022-10-10T02:08:10.499Z,1.77
2022-10-10T02:10:43.403Z,1.33
2022-10-10T02:13:12.873Z,1.65
2022-10-10T02:15:47.501Z,1.27
2022-10-10T02:18:17.881Z,4.20
2022-10-10T02:20:45.690Z,2.03
2022-10-10T02:23:16.422Z,1.42
2022-10-10T02:25:47.453Z,0.43
2022-10-10T02:28:23.937Z,1.67
2022-10-10T02:30:54.585Z,0.55
2022-10-10T02:33:28.286Z,1.30
2022-10-10T02:35:55.053Z,1.30
2022-10-10T02:38:21.976Z,1.02
2022-10-10T02:40:50.160Z,1.27
2022-10-10T02:43:18.053Z,1.15
2022-10-10T02:45:44.764Z,0.68
2022-10-10T02:48:11.265Z,2.60
2022-10-10T02:50:38.263Z,0.90
2022-10-10T02:53:04.743Z,1.63
2022-10-10T02:55:31.140Z,1.13
2022-10-10T02:57:57.550Z,2.33
2022-10-10T03:00:23.977Z,1.95
2022-10-10T03:02:50.753Z,1.25
2022-10-10T03:05:17.450Z,0.55
2022-10-10T03:07:43.847Z,0.73
2022-10-10T03:10:10.450Z,2.53
2022-10-10T03:12:36.992Z,0.82
2022-10-10T03:15:09.181Z,1.88
2022-10-10T03:17:37.755Z,0.65
2022-10-10T03:20:04.663Z,2.88
2022-10-10T03:22:31.051Z,1.40
2022-10-10T03:24:57.560Z,0.98
2022-10-10T03:27:24.001Z,0.93
2022-10-10T03:29:50.421Z,0.70
2022-10-10T03:32:16.887Z,0.57
2022-10-10T03:34:43.330Z,2.05
2022-10-10T03:37:09.803Z,0.88
2022-10-10T03:39:36.234Z,0.90
2022-10-10T03:42:02.742Z,3.08
2022-10-10T03:44:29.121Z,1.25
2022-10-10T03:46:55.533Z,2.05
2022-10-10T03:49:22.051Z,1.27
2022-10-10T03:51:48.488Z,0.98
2022-10-10T03:54:14.909Z,2.42
2022-10-10T03:56:41.298Z,1.02
2022-10-10T03:59:07.758Z,2.45
2022-10-10T04:01:34.452Z,0.90
2022-10-10T04:04:00.888Z,4.25
2022-10-10T04:06:28.298Z,0.50
2022-10-10T04:08:54.683Z,3.28
2022-10-10T04:11:21.107Z,1.63
2022-10-10T04:13:47.617Z,2.38
2022-10-10T04:16:14.048Z,0.70
2022-10-10T04:18:40.455Z,0.98
2022-10-10T04:21:07.301Z,0.90
2022-10-10T04:23:33.799Z,3.42
2022-10-10T04:26:00.289Z,2.75
2022-10-10T04:28:26.767Z,1.52
2022-10-10T04:30:53.243Z,1.40
2022-10-10T04:33:19.603Z,0.88
2022-10-10T04:35:48.456Z,2.03
2022-10-10T04:38:14.852Z,3.22
2022-10-10T04:40:41.227Z,1.83
2022-10-10T04:43:07.726Z,1.52
2022-10-10T04:45:37.381Z,3.40
2022-10-10T04:48:04.340Z,0.60
2022-10-10T04:50:30.771Z,1.80
2022-10-10T04:52:57.151Z,1.65
2022-10-10T04:55:23.566Z,1.52
2022-10-10T04:57:49.953Z,4.18
2022-10-10T05:00:16.558Z,2.42
2022-10-10T05:02:42.972Z,2.83
2022-10-10T05:05:09.638Z,1.60
2022-10-10T05:07:36.463Z,1.90
2022-10-10T05:10:03.093Z,1.15
2022-10-10T05:12:29.492Z,4.68
2022-10-10T05:14:55.848Z,3.25
2022-10-10T05:17:22.406Z,2.47
2022-10-10T05:19:48.813Z,0.93
2022-10-10T05:22:15.354Z,1.55
2022-10-10T05:24:41.747Z,2.05
2022-10-10T05:27:08.350Z,1.48
2022-10-10T05:29:34.962Z,3.65
2022-10-10T05:32:01.367Z,1.15
2022-10-10T05:34:27.942Z,3.03
2022-10-10T05:36:56.679Z,1.73
2022-10-10T05:39:23.569Z,2.78
2022-10-10T05:41:50.016Z,1.63
2022-10-10T05:44:16.484Z,0.77
2022-10-10T05:46:42.856Z,1.85
2022-10-10T05:49:09.239Z,0.60
2022-10-10T05:51:35.643Z,0.60
2022-10-10T05:54:02.498Z,2.22
2022-10-10T05:56:28.872Z,2.72
2022-10-10T05:58:55.263Z,2.95
2022-10-10T06:01:21.657Z,0.95
2022-10-10T06:03:52.644Z,1.02
2022-10-10T06:06:19.639Z,0.60
2022-10-10T06:08:46.011Z,3.33
2022-10-10T06:11:12.447Z,2.80
2022-10-10T06:13:39.143Z,1.27
2022-10-10T06:16:05.818Z,2.03
2022-10-10T06:18:32.227Z,1.42
2022-10-10T06:21:03.344Z,2.10
2022-10-10T06:23:29.899Z,2.10
2022-10-10T06:25:56.326Z,0.35
2022-10-10T06:28:23.047Z,1.85
2022-10-10T06:30:50.847Z,1.00
2022-10-10T06:33:19.079Z,0.73
2022-10-10T06:35:47.637Z,1.08
2022-10-10T06:38:16.227Z,0.68
2022-10-10T06:40:43.813Z,1.75
2022-10-10T06:43:12.275Z,1.60
2022-10-10T06:45:40.705Z,1.25
2022-10-10T06:48:08.338Z,0.80
2022-10-10T06:50:35.231Z,1.77
2022-10-10T06:53:01.896Z,0.80
2022-10-10T06:55:28.271Z,1.73
2022-10-10T06:57:54.684Z,0.93
2022-10-10T07:00:21.330Z,1.48
2022-10-10T07:02:47.892Z,1.00
2022-10-10T07:05:16.986Z,1.73
2022-10-10T07:07:44.994Z,0.40
2022-10-10T07:10:13.335Z,1.45
2022-10-10T07:12:44.405Z,1.02
2022-10-10T07:15:11.758Z,0.73
2022-10-10T07:17:38.202Z,0.88
2022-10-10T07:20:05.174Z,2.05
2022-10-10T07:22:31.611Z,0.75
2022-10-10T07:24:58.244Z,0.55
2022-10-10T07:27:24.701Z,1.10
2022-10-10T07:29:51.114Z,0.65
2022-10-10T07:32:17.507Z,1.33
2022-10-10T07:34:43.993Z,1.25
2022-10-10T07:37:10.398Z,0.40
2022-10-10T07:39:36.851Z,0.80
2022-10-10T07:42:03.563Z,7.10
2022-10-10T07:44:34.295Z,10.82
2022-10-10T07:47:01.052Z,3.55
2022-10-10T07:49:27.529Z,4.65
2022-10-10T07:51:58.600Z,6.40
2022-10-10T07:54:28.139Z,6.40
2022-10-10T07:56:54.630Z,4.20
2022-10-10T07:59:21.115Z,6.72
2022-10-10T08:01:47.663Z,5.03
2022-10-10T08:04:14.198Z,7.35
2022-10-10T08:06:40.591Z,4.15
2022-10-10T08:09:06.976Z,6.78
2022-10-10T08:11:33.389Z,9.45
2022-10-10T08:13:59.818Z,9.20
2022-10-10T08:16:26.666Z,5.70
2022-10-10T08:18:53.174Z,6.10
2022-10-10T08:21:19.639Z,9.35
2022-10-10T08:23:46.963Z,5.97
2022-10-10T08:26:15.452Z,4.45
2022-10-10T08:28:43.191Z,6.75
2022-10-10T08:31:12.533Z,5.45
2022-10-10T08:33:42.545Z,8.30
2022-10-10T08:36:12.063Z,7.00
2022-10-10T08:38:38.774Z,4.28
2022-10-10T08:41:37.133Z,4.78
2022-10-10T08:44:16.508Z,6.07
2022-10-10T08:46:48.655Z,7.03
2022-10-10T08:49:27.806Z,3.42
2022-10-10T08:52:21.987Z,5.85
2022-10-10T08:54:49.699Z,6.70
2022-10-10T08:57:48.127Z,5.05
2022-10-10T09:00:22.095Z,4.57
2022-10-10T09:02:56.631Z,8.48
2022-10-10T09:05:35.476Z,8.15
2022-10-10T09:08:33.214Z,3.88
2022-10-10T09:11:06.954Z,6.05
2022-10-10T09:13:38.633Z,6.60
2022-10-10T09:16:22.851Z,5.85
2022-10-10T09:19:10.911Z,8.13
2022-10-10T09:21:41.191Z,6.70
2022-10-10T09:24:22.626Z,5.03
2022-10-10T09:27:00.344Z,5.00
2022-10-10T09:29:53.856Z,6.35
2022-10-10T09:32:24.352Z,3.95
2022-10-10T09:35:02.033Z,4.80
2022-10-10T09:37:47.338Z,4.72
2022-10-10T09:40:43.409Z,6.53
2022-10-10T09:43:15.179Z,3.75
2022-10-10T09:45:48.820Z,5.20
2022-10-10T09:48:15.204Z,4.10
2022-10-10T09:50:43.802Z,4.53
2022-10-10T09:53:16.607Z,3.90
2022-10-10T09:55:45.959Z,6.63
2022-10-10T09:58:20.944Z,4.47
2022-10-10T10:00:47.490Z,3.80
2022-10-10T10:03:18.314Z,3.97
2022-10-10T10:05:53.035Z,5.50
2022-10-10T10:08:24.075Z,4.15
2022-10-10T10:10:50.831Z,3.88
2022-10-10T10:13:24.463Z,3.40
2022-10-10T10:15:59.274Z,5.72
2022-10-10T10:18:28.870Z,3.45
2022-10-10T10:21:12.407Z,5.57
2022-10-10T10:23:48.942Z,4.68
2022-10-10T10:26:44.414Z,8.02
2022-10-10T10:29:27.712Z,9.35
2022-10-10T10:32:23.425Z,9.82
2022-10-10T10:35:11.216Z,10.75
2022-10-10T10:37:48.485Z,18.10
2022-10-10T10:40:28.692Z,15.32
2022-10-10T10:43:24.122Z,22.88
2022-10-10T10:46:20.512Z,26.58
2022-10-10T10:49:15.024Z,26.75
2022-10-10T10:51:53.488Z,29.60
2022-10-10T10:54:58.741Z,27.90
2022-10-10T10:58:30.243Z,34.13
2022-10-10T11:01:24.259Z,33.42
2022-10-10T11:05:20.938Z,25.80
2022-10-10T11:07:18.387Z,27.00
2022-10-10T11:09:51.755Z,25.63
2022-10-10T11:12:46.139Z,23.48
2022-10-10T11:15:54.153Z,22.40
2022-10-10T11:18:25.726Z,28.92
2022-10-10T11:21:06.962Z,25.52
2022-10-10T11:23:48.573Z,26.60
2022-10-10T11:26:20.643Z,29.80
2022-10-10T11:28:54.025Z,26.65
2022-10-10T11:31:25.914Z,23.73
2022-10-10T11:34:02.111Z,24.05
2022-10-10T11:36:32.059Z,31.55
2022-10-10T11:39:15.624Z,25.15
2022-10-10T11:41:51.063Z,20.90
2022-10-10T11:44:24.095Z,24.50
2022-10-10T11:47:06.904Z,28.83
2022-10-10T11:49:45.011Z,21.45
2022-10-10T11:52:37.359Z,26.65
2022-10-10T11:55:18.152Z,22.67
2022-10-10T11:57:54.750Z,17.70
2022-10-10T12:00:21.603Z,15.75
2022-10-10T12:02:48.382Z,21.90
2022-10-10T12:05:27.152Z,18.45
2022-10-10T12:07:56.305Z,18.02
2022-10-10T12:10:27.614Z,22.65
2022-10-10T12:12:58.051Z,20.13
2022-10-10T12:15:41.925Z,16.13
2022-10-10T12:18:50.676Z,15.27
2022-10-10T12:21:19.534Z,16.42
2022-10-10T12:24:01.230Z,14.45
2022-10-10T12:26:53.172Z,16.90
2022-10-10T12:29:51.059Z,16.50
2022-10-10T12:32:20.493Z,14.93
2022-10-10T12:34:49.863Z,15.77
2022-10-10T12:37:30.990Z,18.23
2022-10-10T12:40:06.556Z,17.15
2022-10-10T12:42:34.778Z,12.38
2022-10-10T12:45:01.266Z,12.73
2022-10-10T12:48:10.261Z,14.18
2022-10-10T12:50:40.375Z,11.05
2022-10-10T12:53:12.787Z,11.90
2022-10-10T12:55:39.137Z,15.32
2022-10-10T12:58:25.835Z,12.15
2022-10-10T13:00:58.620Z,11.48
2022-10-10T13:03:45.655Z,11.75
2022-10-10T13:06:30.895Z,13.20
2022-10-10T13:08:58.511Z,11.38
2022-10-10T13:11:24.943Z,12.13
2022-10-10T13:13:56.544Z,11.20
2022-10-10T13:16:31.167Z,12.25
2022-10-10T13:19:02.964Z,8.45
2022-10-10T13:21:32.679Z,11.23
2022-10-10T13:24:04.750Z,11.50
2022-10-10T13:26:39.076Z,13.95
2022-10-10T13:29:19.421Z,11.43
2022-10-10T13:31:46.064Z,9.57
2022-10-10T13:34:22.226Z,11.80
2022-10-10T13:36:55.077Z,13.70
2022-10-10T13:39:21.747Z,10.43
2022-10-10T13:41:48.432Z,9.80
2022-10-10T13:44:21.650Z,12.93
2022-10-10T13:46:48.158Z,6.60
2022-10-10T13:49:25.286Z,8.90
2022-10-10T13:52:06.311Z,7.50
2022-10-10T13:54:44.262Z,8.55
2022-10-10T13:57:19.196Z,7.13
2022-10-10T13:59:49.331Z,7.72
2022-10-10T14:02:19.010Z,8.55
2022-10-10T14:04:51.965Z,8.73
2022-10-10T14:07:22.694Z,5.93
2022-10-10T14:09:59.075Z,7.50
2022-10-10T14:12:25.480Z,8.35
2022-10-10T14:14:57.418Z,7.40
2022-10-10T14:17:25.051Z,7.05
2022-10-10T14:19:52.514Z,5.20
2022-10-10T14:22:20.494Z,6.18
2022-10-10T14:24:48.102Z,8.00
2022-10-10T14:27:22.526Z,5.22
2022-10-10T14:29:49.890Z,7.70
2022-10-10T14:32:19.273Z,7.10
2022-10-10T14:34:46.325Z,5.53
2022-10-10T14:37:23.327Z,5.93
2022-10-10T14:39:49.903Z,3.92
2022-10-10T14:42:18.001Z,5.05
2022-10-10T14:44:44.438Z,4.20
2022-10-10T14:47:17.528Z,4.32
2022-10-10T14:49:44.186Z,3.15
2022-10-10T14:52:11.010Z,8.02
2022-10-10T14:54:37.595Z,8.85
2022-10-10T14:57:06.789Z,5.88
2022-10-10T14:59:47.766Z,3.80
2022-10-10T15:02:19.760Z,4.22
2022-10-10T15:04:46.269Z,7.75
2022-10-10T15:07:14.282Z,4.22
2022-10-10T15:09:56.499Z,6.75
2022-10-10T15:12:28.985Z,3.17
2022-10-10T15:14:55.538Z,4.28
2022-10-10T15:17:22.003Z,3.83
2022-10-10T15:19:48.423Z,4.07
2022-10-10T15:22:14.803Z,2.85
2022-10-10T15:24:41.280Z,3.83
2022-10-10T15:27:07.647Z,3.58
2022-10-10T15:29:34.010Z,4.15
2022-10-10T15:32:01.463Z,5.00
2022-10-10T15:34:27.854Z,3.28
2022-10-10T15:36:54.245Z,4.25
2022-10-10T15:39:20.689Z,4.05
2022-10-10T15:41:47.273Z,3.28
2022-10-10T15:44:18.418Z,2.35
2022-10-10T15:46:45.778Z,4.55
2022-10-10T15:49:13.753Z,3.45
2022-10-10T15:51:45.207Z,3.03
2022-10-10T15:54:11.989Z,2.90
2022-10-10T15:56:38.674Z,3.88
2022-10-10T15:59:05.625Z,4.00
2022-10-10T16:01:32.313Z,2.22
2022-10-10T16:03:58.875Z,3.05
2022-10-10T16:06:26.043Z,3.53
2022-10-10T16:09:16.215Z,2.10
2022-10-10T16:11:39.379Z,3.13
2022-10-10T16:14:05.812Z,4.47
2022-10-10T16:16:32.263Z,2.97
2022-10-10T16:18:59.750Z,2.42
2022-10-10T16:21:26.265Z,2.50
2022-10-10T16:23:57.742Z,11.27
2022-10-10T16:26:26.777Z,2.92
2022-10-10T16:28:55.029Z,2.67
2022-10-10T16:31:22.238Z,1.95
2022-10-10T16:33:49.441Z,2.47
2022-10-10T16:36:25.059Z,2.85
2022-10-10T16:38:53.931Z,3.75
2022-10-10T16:41:46.050Z,2.30
2022-10-10T16:44:07.400Z,2.10
2022-10-10T16:46:33.989Z,2.10
2022-10-10T16:49:00.471Z,1.50
2022-10-10T16:51:29.698Z,2.17
2022-10-10T16:54:00.109Z,5.47
2022-10-10T16:56:26.617Z,2.40
2022-10-10T16:58:53.041Z,2.83
2022-10-10T17:01:21.925Z,1.92
2022-10-10T17:03:49.955Z,2.38
2022-10-10T17:06:19.464Z,2.65
2022-10-10T17:08:50.344Z,2.78
2022-10-10T17:11:18.606Z,1.92
2022-10-10T17:13:45.395Z,2.15
2022-10-10T17:16:53.572Z,1.77
2022-10-10T17:19:03.081Z,1.35
2022-10-10T17:21:29.800Z,1.65
2022-10-10T17:23:56.267Z,3.35
2022-10-10T17:26:23.019Z,2.75
2022-10-10T17:28:50.656Z,3.47
2022-10-10T17:31:17.657Z,2.28
2022-10-10T17:33:53.320Z,1.20
2022-10-10T17:36:23.415Z,3.10
2022-10-10T17:38:49.947Z,4.85
2022-10-10T17:41:17.816Z,2.88
2022-10-10T17:43:44.565Z,3.75
2022-10-10T17:48:48.624Z,1.90
2022-10-10T17:51:16.914Z,1.30
2022-10-10T17:53:44.096Z,1.67
2022-10-10T17:56:16.535Z,1.80
2022-10-10T17:58:43.615Z,1.60
2022-10-10T18:01:11.045Z,0.90
2022-10-10T18:03:37.539Z,3.25
2022-10-10T18:06:06.582Z,2.17
2022-10-10T18:08:33.030Z,2.92
2022-10-10T18:10:59.789Z,2.55
2022-10-10T18:13:26.519Z,1.58
2022-10-10T18:16:06.253Z,1.90
2022-10-10T18:18:34.859Z,1.95
2022-10-10T18:21:07.451Z,3.58
2022-10-10T18:23:34.231Z,1.13
2022-10-10T18:26:05.371Z,2.22
2022-10-10T18:28:33.546Z,1.92
2022-10-10T18:31:00.323Z,4.13
2022-10-10T18:33:26.940Z,1.90
2022-10-10T18:35:53.342Z,2.15
2022-10-10T18:38:19.779Z,2.97
2022-10-10T18:40:46.209Z,1.20
2022-10-10T18:43:12.840Z,2.22
2022-10-10T18:45:39.224Z,2.63
2022-10-10T18:48:06.302Z,4.05
2022-10-10T18:50:32.710Z,2.97
2022-10-10T18:52:59.092Z,1.13
2022-10-10T18:55:30.190Z,3.28
2022-10-10T18:57:57.752Z,2.80
2022-10-10T19:00:27.137Z,2.28
2022-10-10T19:02:53.575Z,2.50
2022-10-10T19:05:20.377Z,5.22
2022-10-10T19:07:46.754Z,1.80
2022-10-10T19:10:13.131Z,2.40
2022-10-10T19:12:41.987Z,1.08
2022-10-10T19:15:11.687Z,2.95
2022-10-10T19:17:38.076Z,1.70
2022-10-10T19:20:05.627Z,2.15
2022-10-10T19:22:32.101Z,2.28
2022-10-10T19:24:58.543Z,1.77
2022-10-10T19:27:25.009Z,2.22
2022-10-10T19:29:51.424Z,2.30
2022-10-10T19:32:17.797Z,3.63
2022-10-10T19:34:44.160Z,1.55
2022-10-10T19:37:10.547Z,1.45
2022-10-10T19:39:36.982Z,1.33
2022-10-10T19:42:03.519Z,1.27
2022-10-10T19:44:29.953Z,1.33
2022-10-10T19:46:56.561Z,2.08
2022-10-10T19:49:22.947Z,0.65
2022-10-10T19:51:49.335Z,2.75
2022-10-10T19:54:15.755Z,0.88
2022-10-10T19:56:42.268Z,2.40
2022-10-10T19:59:09.140Z,1.60
2022-10-10T20:01:36.773Z,2.40
2022-10-10T20:04:03.253Z,1.92
2022-10-10T20:06:29.738Z,1.33
2022-10-10T20:08:56.196Z,1.20
2022-10-10T20:11:23.318Z,1.60
2022-10-10T20:13:53.064Z,1.95
2022-10-10T20:16:20.167Z,1.35
2022-10-10T20:18:46.991Z,3.47
2022-10-10T20:21:17.647Z,1.95
2022-10-10T20:23:45.983Z,1.17
2022-10-10T20:26:18.129Z,1.23
2022-10-10T20:28:46.354Z,2.78
2022-10-10T20:31:22.658Z,1.75
2022-10-10T20:33:50.777Z,5.72
2022-10-10T20:36:21.907Z,2.15
2022-10-10T20:38:53.996Z,1.08
2022-10-10T20:41:21.110Z,2.80
2022-10-10T20:43:47.810Z,1.80
2022-10-10T20:46:15.051Z,2.00
2022-10-10T20:48:41.673Z,1.52
2022-10-10T20:51:11.177Z,1.95
2022-10-10T20:53:39.211Z,1.15
2022-10-10T20:56:07.663Z,2.38
2022-10-10T20:58:36.366Z,1.45
2022-10-10T21:01:10.387Z,0.98
2022-10-10T21:06:10.276Z,1.58
2022-10-10T21:08:37.199Z,1.73
2022-10-10T21:11:05.959Z,1.70
2022-10-10T21:13:34.192Z,1.38
2022-10-10T21:16:00.714Z,1.02
2022-10-10T21:18:27.311Z,2.45
2022-10-10T21:21:02.056Z,1.98
2022-10-10T21:23:29.954Z,1.63
2022-10-10T21:25:56.483Z,1.58
2022-10-10T21:28:22.927Z,2.00
2022-10-10T21:30:53.387Z,0.65
2022-10-10T21:33:22.363Z,1.00
2022-10-10T21:35:53.703Z,1.30
2022-10-10T21:38:20.805Z,2.22
2022-10-10T21:40:47.705Z,1.75
2022-10-10T21:43:15.124Z,1.67
2022-10-10T21:45:42.699Z,2.42
2022-10-10T21:48:10.586Z,1.67
2022-10-10T21:50:38.047Z,1.65
2022-10-10T21:53:06.617Z,1.48
2022-10-10T21:55:34.087Z,0.85
2022-10-10T21:58:00.472Z,2.60
2022-10-10T22:00:26.921Z,0.68
2022-10-10T22:02:53.359Z,1.40
2022-10-10T22:05:19.757Z,1.65
2022-10-10T22:07:46.234Z,1.85
2022-10-10T22:10:19.563Z,1.52
2022-10-10T22:12:46.654Z,0.97
2022-10-10T22:15:13.751Z,3.08
2022-10-10T22:17:40.339Z,1.17
2022-10-10T22:20:09.571Z,1.33
2022-10-10T22:22:41.321Z,1.17
2022-10-10T22:25:10.887Z,0.70
2022-10-10T22:27:37.404Z,0.80
2022-10-10T22:30:06.589Z,3.10
2022-10-10T22:32:33.598Z,0.95
2022-10-10T22:35:00.152Z,2.25
2022-10-10T22:37:26.755Z,1.30
2022-10-10T22:39:53.171Z,1.50
2022-10-10T22:42:19.640Z,1.27
2022-10-10T22:44:46.027Z,0.88
2022-10-10T22:47:12.835Z,0.40
2022-10-10T22:49:39.216Z,1.33
2022-10-10T22:52:06.432Z,0.77
2022-10-10T22:54:32.910Z,0.60
2022-10-10T22:56:59.359Z,1.00
2022-10-10T22:59:25.916Z,1.20
2022-10-10T23:01:54.412Z,1.30
2022-10-10T23:04:22.639Z,2.22
2022-10-10T23:06:49.767Z,1.08
2022-10-10T23:09:16.616Z,1.40
2022-10-10T23:11:43.151Z,0.70
2022-10-10T23:14:09.909Z,1.17
2022-10-10T23:16:40.408Z,2.08
2022-10-10T23:19:07.301Z,1.83
2022-10-10T23:21:33.676Z,1.30
2022-10-10T23:24:00.072Z,1.08
2022-10-10T23:26:26.520Z,0.80
2022-10-10T23:28:53.029Z,6.10
2022-10-10T23:31:19.432Z,0.85
2022-10-10T23:33:45.839Z,0.30
2022-10-10T23:36:14.228Z,1.40
2022-10-10T23:38:41.543Z,1.20
2022-10-10T23:41:09.538Z,0.93
2022-10-10T23:43:36.681Z,1.00
2022-10-10T23:46:04.461Z,0.55
2022-10-10T23:48:31.127Z,0.70
2022-10-10T23:50:57.491Z,0.93
2022-10-10T23:53:23.885Z,1.33
2022-10-10T23:55:50.295Z,1.75
2022-10-10T23:58:16.722Z,0.95
